Terminal Aerodrome Forecast
Issued by NWS

Home | Current Version | Previous Version | Graphics & Text | Print | Product List | Glossary On
Versions: 1 2 3 4 5 6 7 8 9 10 11 12 13 14 15 16 17 18 19 20
000
FTUS43 KICT 240841 AAA
TAFSLN
TAF AMD
KSLN 240841Z 2409/2506 15011KT P6SM OVC015
     FM241030 15011KT 6SM -DZ BR SCT005 OVC008
     FM241200 15012KT 4SM -DZ BR OVC005
     FM241600 15013KT 6SM BR SCT005 OVC008
     FM241800 16014KT P6SM BKN015
     FM242000 17014KT P6SM VCTS SCT015 BKN030CB=

USA.gov is the U.S. government's official web portal to all federal, state and local government web resources and services.